Time;durP1;ratioP1;P1;durP2;ratioP2;P2;SDS_P1;SDS_P2;PMS_P1;PMS_P2;Temp;Humidity;BMP_temperature;BMP_pressure;BME280_temperature;BME280_humidity;BME280_pressure;Samples;Min_cycle;Max_cycle;Signal;HPM_P1;HPM_P2
2023/07/13 00:01:25;;;;;;;8.02;1.38;;;18.80;99.90;;;;;;5222356;28;20214;-64
2023/07/13 00:03:57;;;;;;;1.30;1.05;;;18.70;99.90;;;;;;5210044;28;20028;-66
2023/07/13 00:06:32;;;;;;;1.20;1.10;;;18.80;99.90;;;;;;5244996;28;20020;-64
2023/07/13 00:09:06;;;;;;;0.93;0.80;;;18.70;99.90;;;;;;5226735;28;20036;-65
2023/07/13 00:11:38;;;;;;;1.42;0.90;;;18.70;99.90;;;;;;5213873;28;20029;-65
2023/07/13 00:14:12;;;;;;;7.18;1.23;;;18.60;99.90;;;;;;5205812;28;20029;-64
2023/07/13 00:16:49;;;;;;;3.10;1.13;;;18.50;99.90;;;;;;5220976;28;20024;-65
2023/07/13 00:19:21;;;;;;;1.10;0.98;;;18.50;99.90;;;;;;5201479;28;20047;-67
2023/07/13 00:22:01;;;;;;;1.13;1.02;;;18.50;99.90;;;;;;5203834;28;20025;-66
2023/07/13 00:24:41;;;;;;;3.70;1.83;;;18.40;99.90;;;;;;5169494;28;20250;-66
2023/07/13 00:27:15;;;;;;;1.20;1.10;;;18.30;99.90;;;;;;5209888;28;20020;-66
2023/07/13 00:29:49;;;;;;;1.30;1.20;;;18.30;99.90;;;;;;5224251;28;20033;-66
2023/07/13 00:32:20;;;;;;;1.20;1.02;;;18.30;99.90;;;;;;5184605;28;20311;-67
2023/07/13 00:34:52;;;;;;;1.00;1.00;;;18.20;99.90;;;;;;5186775;28;20025;-66
2023/07/13 00:37:23;;;;;;;1.67;0.95;;;18.30;99.90;;;;;;5212275;28;20025;-67
2023/07/13 00:39:55;;;;;;;0.80;0.80;;;18.30;99.90;;;;;;5224632;28;20025;-66
2023/07/13 00:42:26;;;;;;;1.27;1.17;;;18.30;99.90;;;;;;5206343;28;20035;-66
2023/07/13 00:45:05;;;;;;;2.08;1.00;;;18.30;99.90;;;;;;5204224;28;20043;-67
2023/07/13 00:47:36;;;;;;;0.95;0.95;;;18.30;99.90;;;;;;5207323;28;20024;-65
2023/07/13 00:50:15;;;;;;;1.27;1.17;;;18.20;99.90;;;;;;5203795;28;20359;-66
2023/07/13 00:52:53;;;;;;;1.85;1.20;;;18.20;99.90;;;;;;5204262;28;20035;-66
2023/07/13 00:55:28;;;;;;;2.80;1.30;;;18.20;99.90;;;;;;5204666;28;20041;-65
2023/07/13 00:58:00;;;;;;;5.63;1.35;;;18.20;99.90;;;;;;5188691;28;20029;-67
2023/07/13 01:03:12;;;;;;;0.90;0.80;;;18.20;99.90;;;;;;5220991;28;20041;-86
2023/07/13 01:05:49;;;;;;;1.05;1.02;;;18.20;99.90;;;;;;5236874;28;20032;-86
2023/07/13 01:08:22;;;;;;;0.73;0.73;;;18.50;99.90;;;;;;5237256;28;20033;-86
2023/07/13 01:10:59;;;;;;;2.00;0.70;;;19.00;1.00;;;;;;5220763;28;20036;-86
2023/07/13 01:13:34;;;;;;;0.98;0.95;;;19.80;99.90;;;;;;5188484;28;20036;-88
2023/07/13 01:16:29;;;;;;;0.93;0.93;;;20.40;1.00;;;;;;5204444;28;20029;-86
2023/07/13 01:19:03;;;;;;;2.13;0.98;;;20.80;1.00;;;;;;5222416;28;20029;-88
2023/07/13 01:21:34;;;;;;;0.90;0.85;;;21.00;1.00;;;;;;5237953;28;20025;-88
2023/07/13 01:24:07;;;;;;;0.77;0.70;;;21.00;1.00;;;;;;5220949;28;20035;-86
2023/07/13 01:26:41;;;;;;;1.50;0.77;;;21.00;1.00;;;;;;5238652;28;20036;-86
2023/07/13 01:29:18;;;;;;;1.05;0.73;;;21.20;99.90;;;;;;5221476;28;20029;-87
2023/07/13 01:31:52;;;;;;;0.80;0.80;;;21.50;1.00;;;;;;5188239;28;20029;-88
2023/07/13 01:34:27;;;;;;;1.85;0.90;;;21.50;1.00;;;;;;5237104;28;20029;-86
2023/07/13 01:36:59;;;;;;;0.63;0.63;;;21.60;1.00;;;;;;5219801;28;20027;-87
2023/07/13 01:39:33;;;;;;;1.10;0.70;;;21.60;1.00;;;;;;5236719;28;20033;-86
2023/07/13 01:42:05;;;;;;;1.08;0.80;;;21.70;1.00;;;;;;5236951;28;20029;-86
2023/07/13 01:44:37;;;;;;;0.80;0.80;;;21.70;1.00;;;;;;5188792;28;20033;-86
2023/07/13 01:47:10;;;;;;;0.98;0.88;;;21.80;1.00;;;;;;5221154;28;20037;-86
2023/07/13 01:49:47;;;;;;;0.80;0.80;;;22.00;1.00;;;;;;5187300;28;20044;-86
2023/07/13 01:55:49;;;;;;;1.33;0.80;;;22.00;1.00;;;;;;5236430;28;20283;-85
2023/07/13 01:58:24;;;;;;;0.80;0.80;;;22.00;1.00;;;;;;5220505;28;20038;-86
2023/07/13 02:00:59;;;;;;;1.13;0.68;;;22.00;1.00;;;;;;5220281;28;20029;-86
2023/07/13 02:03:30;;;;;;;;;;;22.10;1.00;;;;;;5239018;28;20033;-88
2023/07/13 02:06:02;;;;;;;2.45;1.40;;;22.10;1.00;;;;;;5221505;28;19907;-87
2023/07/13 02:08:39;;;;;;;1.27;0.80;;;22.20;1.00;;;;;;5220276;28;20065;-86
2023/07/13 02:11:13;;;;;;;1.67;0.90;;;22.20;1.00;;;;;;5226399;28;20022;-87
2023/07/13 02:13:44;;;;;;;1.80;1.23;;;22.30;1.00;;;;;;5198776;28;20034;-87
2023/07/13 02:16:19;;;;;;;2.05;0.90;;;22.30;1.00;;;;;;5248689;28;20041;-87
2023/07/13 02:18:52;;;;;;;1.27;0.93;;;22.30;1.00;;;;;;5248816;28;20042;-86
2023/07/13 02:21:24;;;;;;;0.63;0.63;;;22.30;1.00;;;;;;5215333;28;20029;-87
2023/07/13 02:23:59;;;;;;;2.65;1.40;;;22.40;1.00;;;;;;5215381;28;20032;-86
2023/07/13 02:26:31;;;;;;;0.80;0.80;;;22.40;3.10;;;;;;5248606;28;20033;-87
2023/07/13 02:29:08;;;;;;;1.38;0.90;;;22.30;78.70;;;;;;5215055;28;20040;-87
2023/07/13 02:31:44;;;;;;;1.38;0.60;;;22.20;99.90;;;;;;5232922;28;20045;-87
2023/07/13 02:37:46;;;;;;;0.70;0.70;;;22.20;99.90;;;;;;5230134;28;20016;-86
2023/07/13 02:40:19;;;;;;;1.27;0.98;;;22.10;99.90;;;;;;5213057;28;20042;-86
2023/07/13 02:42:51;;;;;;;0.90;0.90;;;21.90;1.00;;;;;;5227138;28;20042;-87
2023/07/13 02:48:53;;;;;;;0.95;0.95;;;21.30;1.00;;;;;;5236045;28;20063;-86
2023/07/13 02:51:34;;;;;;;1.13;0.98;;;21.00;99.90;;;;;;5201942;28;20040;-86
2023/07/13 02:54:25;;;;;;;0.82;0.82;;;20.70;1.00;;;;;;5227645;28;20028;-88
2023/07/13 02:57:00;;;;;;;1.65;1.10;;;20.30;1.00;;;;;;5188187;28;20025;-88
2023/07/13 02:59:55;;;;;;;1.83;0.88;;;20.00;1.00;;;;;;5209716;28;20037;-87
2023/07/13 03:02:37;;;;;;;1.33;1.20;;;19.70;68.30;;;;;;5229916;28;20045;-87
2023/07/13 03:05:49;;;;;;;1.40;1.27;;;19.50;99.90;;;;;;5181041;28;20029;-88
2023/07/13 03:09:08;;;;;;;1.00;1.00;;;19.40;99.90;;;;;;5228434;28;20039;-88
2023/07/13 03:16:18;;;;;;;2.10;1.30;;;19.00;99.90;;;;;;5188723;28;20033;-89
2023/07/13 03:18:50;;;;;;;1.70;1.50;;;18.90;99.90;;;;;;5171784;28;20030;-87
2023/07/13 03:21:24;;;;;;;1.15;1.05;;;18.70;99.90;;;;;;5155133;28;20045;-88
2023/07/13 03:23:58;;;;;;;1.25;1.15;;;18.60;99.90;;;;;;5185902;28;20034;-87
2023/07/13 03:26:29;;;;;;;1.20;1.10;;;18.50;99.90;;;;;;5150772;28;20141;-87
2023/07/13 03:29:05;;;;;;;1.20;1.10;;;18.50;99.90;;;;;;5152418;28;20038;-87
2023/07/13 03:31:38;;;;;;;1.23;1.08;;;18.40;99.90;;;;;;5135535;28;20057;-87
2023/07/13 03:34:18;;;;;;;1.30;1.20;;;18.40;99.90;;;;;;5170113;28;20030;-86
2023/07/13 03:36:53;;;;;;;3.38;1.45;;;18.30;99.90;;;;;;5171441;28;20030;-87
2023/07/13 03:39:34;;;;;;;2.05;1.48;;;18.30;99.90;;;;;;5186670;28;20033;-86
2023/07/13 03:42:10;;;;;;;2.30;1.73;;;18.30;99.90;;;;;;5155624;28;20034;-86
2023/07/13 03:44:52;;;;;;;;;;;18.20;99.90;;;;;;5167138;28;20030;-87
2023/07/13 03:47:48;;;;;;;2.15;1.67;;;18.20;99.90;;;;;;5168903;28;19912;-87
2023/07/13 03:50:41;;;;;;;3.15;1.15;;;18.20;99.90;;;;;;5196495;28;20051;-87
2023/07/13 03:53:18;;;;;;;1.52;1.20;;;18.20;99.90;;;;;;5223510;28;20033;-87
2023/07/13 03:55:54;;;;;;;1.25;1.10;;;18.20;99.90;;;;;;5241251;28;20027;-86
2023/07/13 03:58:32;;;;;;;1.75;1.08;;;18.20;99.90;;;;;;5207526;28;20039;-87
2023/07/13 04:01:15;;;;;;;1.60;1.30;;;18.30;99.90;;;;;;5208858;28;20030;-86
2023/07/13 04:03:48;;;;;;;7.93;2.08;;;18.20;99.90;;;;;;5243208;28;20030;-87
2023/07/13 04:06:36;;;;;;;2.80;1.38;;;18.20;99.90;;;;;;5227187;28;20025;-87
2023/07/13 04:09:13;;;;;;;1.48;1.13;;;18.30;99.90;;;;;;5194953;28;20034;-87
2023/07/13 04:11:50;;;;;;;3.83;1.27;;;18.30;99.90;;;;;;5209378;28;20034;-87
2023/07/13 04:14:28;;;;;;;3.70;1.90;;;18.20;99.90;;;;;;5192444;28;20033;-86
2023/07/13 04:17:08;;;;;;;1.73;1.45;;;18.20;99.90;;;;;;5213255;28;20033;-86
2023/07/13 04:20:09;;;;;;;3.13;1.35;;;18.30;99.90;;;;;;5224337;28;20059;-87
2023/07/13 04:22:41;;;;;;;3.20;1.48;;;18.20;99.90;;;;;;5208706;28;20044;-89
2023/07/13 04:28:46;;;;;;;1.67;1.58;;;18.10;99.90;;;;;;5224894;28;20040;-88
2023/07/13 04:31:30;;;;;;;5.50;1.52;;;18.10;99.90;;;;;;5225264;28;20025;-88
2023/07/13 04:34:06;;;;;;;1.40;1.30;;;18.00;99.90;;;;;;5208913;28;20215;-88
2023/07/13 04:36:44;;;;;;;3.03;1.40;;;18.00;99.90;;;;;;5191976;28;20039;-86
2023/07/13 04:39:24;;;;;;;2.45;1.75;;;18.10;99.90;;;;;;5226471;28;20032;-88
2023/07/13 04:41:59;;;;;;;2.70;1.30;;;18.10;99.90;;;;;;5225678;28;20040;-88
2023/07/13 04:44:33;;;;;;;1.50;1.40;;;18.10;99.90;;;;;;5226037;28;20291;-87
2023/07/13 04:47:14;;;;;;;1.90;1.55;;;18.10;99.90;;;;;;5223492;28;20036;-87
2023/07/13 04:49:46;;;;;;;3.45;1.80;;;18.20;99.90;;;;;;5190950;28;20037;-87
2023/07/13 04:55:32;;;;;;;1.55;1.45;;;18.20;99.90;;;;;;5215182;28;20547;-64
2023/07/13 04:58:05;;;;;;;2.28;1.70;;;18.30;99.90;;;;;;5220436;28;20028;-63
2023/07/13 05:00:36;;;;;;;2.67;1.42;;;18.50;99.90;;;;;;5199279;28;20043;-64
2023/07/13 05:03:11;;;;;;;2.13;1.50;;;18.50;99.90;;;;;;5222798;28;20033;-63
2023/07/13 05:05:42;;;;;;;1.42;1.13;;;18.40;99.90;;;;;;5223628;28;20322;-63
2023/07/13 05:08:15;;;;;;;1.58;1.42;;;18.50;99.90;;;;;;5222786;28;20037;-63
2023/07/13 05:10:50;;;;;;;2.50;1.50;;;18.70;99.90;;;;;;5204485;28;20045;-64
2023/07/13 05:13:22;;;;;;;1.67;1.55;;;18.70;99.90;;;;;;5188361;28;20489;-65
2023/07/13 05:16:20;;;;;;;1.73;1.40;;;18.70;99.90;;;;;;5220166;28;20217;-63
2023/07/13 05:18:53;;;;;;;1.55;1.23;;;18.60;99.90;;;;;;5220018;28;20041;-66
2023/07/13 05:21:27;;;;;;;1.33;1.23;;;18.60;99.90;;;;;;5187998;28;20043;-67
2023/07/13 05:24:01;;;;;;;1.50;1.40;;;18.70;99.90;;;;;;5204207;28;20048;-64
2023/07/13 05:26:36;;;;;;;2.08;1.30;;;18.80;99.90;;;;;;5204211;28;20033;-66
2023/07/13 05:29:07;;;;;;;0.75;0.75;;;19.00;99.90;;;;;;5187194;28;20036;-61
2023/07/13 05:31:38;;;;;;;0.70;0.70;;;19.20;99.90;;;;;;5202349;28;20362;-62
2023/07/13 05:34:10;;;;;;;0.70;0.65;;;19.50;99.90;;;;;;5204868;28;20031;-63
2023/07/13 05:36:42;;;;;;;0.77;0.77;;;19.60;99.90;;;;;;5218109;28;20045;-63
2023/07/13 05:39:15;;;;;;;2.45;1.42;;;19.60;99.90;;;;;;5187376;28;20048;-65
2023/07/13 05:41:48;;;;;;;1.50;0.93;;;19.50;99.90;;;;;;5188315;28;20047;-64
2023/07/13 05:44:24;;;;;;;1.70;1.20;;;19.50;99.90;;;;;;5221071;28;20028;-65
2023/07/13 05:46:58;;;;;;;0.90;0.90;;;19.50;99.90;;;;;;5186256;28;20041;-67
2023/07/13 05:49:32;;;;;;;0.93;0.93;;;19.50;99.90;;;;;;5205024;28;20036;-66
2023/07/13 05:52:09;;;;;;;1.75;1.05;;;19.50;99.90;;;;;;5185556;28;20119;-65
2023/07/13 05:54:44;;;;;;;0.65;0.65;;;19.50;99.90;;;;;;5187620;28;20139;-63
2023/07/13 05:57:15;;;;;;;1.13;1.02;;;19.40;99.90;;;;;;5187395;28;20043;-65
2023/07/13 05:59:49;;;;;;;0.88;0.80;;;19.50;99.90;;;;;;5187572;28;20039;-63
2023/07/13 06:02:20;;;;;;;0.80;0.70;;;19.50;26.50;;;;;;5207171;28;20036;-62
2023/07/13 06:04:52;;;;;;;0.80;0.80;;;19.50;37.40;;;;;;5220803;28;20249;-62
2023/07/13 06:07:24;;;;;;;1.58;0.80;;;19.50;16.50;;;;;;5187230;28;20150;-63
2023/07/13 06:09:59;;;;;;;0.70;0.70;;;19.50;1.00;;;;;;5188285;28;20041;-63
2023/07/13 06:12:30;;;;;;;3.03;0.98;;;19.50;1.00;;;;;;5221842;28;20308;-61
2023/07/13 06:15:04;;;;;;;0.95;0.90;;;19.50;1.00;;;;;;5203710;28;20033;-62
2023/07/13 06:17:38;;;;;;;0.82;0.82;;;19.60;68.40;;;;;;5219938;28;20021;-61
2023/07/13 06:20:13;;;;;;;0.95;0.77;;;19.50;99.90;;;;;;5184956;28;20021;-66
2023/07/13 06:22:47;;;;;;;1.67;1.27;;;19.50;99.90;;;;;;5186667;28;20037;-64
2023/07/13 06:25:21;;;;;;;1.10;1.00;;;19.40;67.90;;;;;;5222134;28;20395;-61
2023/07/13 06:27:53;;;;;;;1.50;0.90;;;19.50;59.70;;;;;;5182860;28;20018;-62
2023/07/13 06:30:26;;;;;;;1.33;0.93;;;19.60;99.90;;;;;;5196017;28;20205;-62
2023/07/13 06:32:58;;;;;;;1.10;1.00;;;19.70;1.00;;;;;;5181729;28;20034;-59
2023/07/13 06:35:29;;;;;;;1.02;0.80;;;19.80;1.00;;;;;;5200592;28;20025;-63
2023/07/13 06:38:02;;;;;;;0.82;0.82;;;19.90;1.00;;;;;;5202746;28;20025;-60
2023/07/13 06:40:33;;;;;;;0.95;0.90;;;20.00;1.00;;;;;;5183725;28;20055;-65
2023/07/13 06:43:05;;;;;;;2.25;0.70;;;20.10;1.00;;;;;;5203419;28;20048;-61
2023/07/13 06:45:47;;;;;;;0.93;0.90;;;20.30;1.00;;;;;;5196024;28;20043;-62
2023/07/13 06:48:19;;;;;;;0.63;0.63;;;20.50;99.90;;;;;;5205165;28;20318;-63
2023/07/13 06:50:53;;;;;;;0.80;0.80;;;20.80;1.00;;;;;;5206436;28;20036;-62
2023/07/13 06:53:27;;;;;;;1.05;0.90;;;20.80;99.90;;;;;;5207978;28;20322;-63
2023/07/13 06:56:01;;;;;;;;;;;21.00;99.90;;;;;;5205712;28;20029;-62
2023/07/13 06:58:40;;;;;;;0.50;0.50;;;21.10;7.90;;;;;;5221338;28;19908;-61
2023/07/13 07:01:14;;;;;;;0.55;0.55;;;21.30;1.00;;;;;;5224022;28;20032;-62
2023/07/13 07:03:50;;;;;;;0.83;0.60;;;21.60;1.00;;;;;;5190572;28;20043;-61
2023/07/13 07:06:24;;;;;;;1.65;1.52;;;21.80;99.90;;;;;;5190080;28;20254;-63
2023/07/13 07:08:57;;;;;;;0.60;0.60;;;22.00;99.90;;;;;;5186628;28;20052;-65
2023/07/13 07:11:31;;;;;;;1.60;0.93;;;22.10;99.90;;;;;;5187841;28;20619;-63
2023/07/13 07:14:02;;;;;;;1.10;0.60;;;22.10;99.90;;;;;;5190697;28;20241;-63
2023/07/13 07:16:38;;;;;;;0.50;0.50;;;21.90;99.90;;;;;;5188036;28;20025;-65
2023/07/13 07:19:10;;;;;;;0.82;0.70;;;21.70;99.90;;;;;;5207010;28;20029;-66
2023/07/13 07:21:41;;;;;;;0.60;0.60;;;21.50;1.00;;;;;;5207296;28;20029;-63
2023/07/13 07:24:15;;;;;;;0.70;0.70;;;21.50;1.00;;;;;;5173663;28;20230;-65
2023/07/13 07:26:47;;;;;;;0.70;0.70;;;21.50;1.00;;;;;;5206624;28;20024;-63
2023/07/13 07:29:18;;;;;;;0.70;0.70;;;21.60;1.00;;;;;;5225124;28;20312;-62
2023/07/13 07:31:52;;;;;;;0.50;0.50;;;21.60;99.90;;;;;;5221087;28;20032;-64
2023/07/13 07:34:26;;;;;;;;;;;21.70;99.90;;;;;;5201272;28;20367;-62
2023/07/13 07:37:01;;;;;;;0.55;0.55;;;21.60;99.90;;;;;;5190301;28;19911;-65
2023/07/13 07:39:40;;;;;;;1.15;0.70;;;21.60;99.90;;;;;;5224958;28;20039;-62
2023/07/13 07:42:15;;;;;;;0.68;0.60;;;21.70;1.00;;;;;;5206610;28;20033;-61
2023/07/13 07:44:54;;;;;;;0.50;0.50;;;21.70;1.00;;;;;;5203356;28;20044;-62
2023/07/13 07:47:25;;;;;;;0.50;0.50;;;21.80;1.00;;;;;;5201494;28;20329;-60
2023/07/13 07:49:57;;;;;;;0.60;0.60;;;22.20;1.00;;;;;;5182123;28;20045;-63
2023/07/13 07:52:33;;;;;;;0.50;0.50;;;22.60;99.90;;;;;;5190157;28;20340;-64
2023/07/13 07:55:06;;;;;;;0.50;0.50;;;23.20;99.90;;;;;;5189400;28;20225;-63
2023/07/13 07:57:38;;;;;;;0.73;0.60;;;23.70;1.00;;;;;;5223289;28;20027;-62
2023/07/13 08:00:16;;;;;;;2.40;0.50;;;23.50;1.00;;;;;;5202721;28;20043;-66
2023/07/13 08:02:50;;;;;;;0.40;0.40;;;23.30;1.00;;;;;;5224530;28;20024;-65
2023/07/13 08:05:23;;;;;;;0.82;0.82;;;23.20;1.00;;;;;;5190399;28;20035;-67
2023/07/13 08:07:54;;;;;;;0.50;0.50;;;23.30;1.00;;;;;;5206791;28;20029;-64
2023/07/13 08:10:26;;;;;;;0.75;0.65;;;23.60;1.00;;;;;;5223382;28;20041;-66
2023/07/13 08:13:00;;;;;;;0.65;0.60;;;24.10;99.90;;;;;;5189674;28;20037;-64
2023/07/13 08:15:33;;;;;;;;;;;24.50;99.90;;;;;;5202397;28;20035;-66
2023/07/13 08:18:04;;;;;;;0.50;0.50;;;24.90;1.00;;;;;;5173296;28;19912;-64
2023/07/13 08:20:39;;;;;;;0.40;0.40;;;25.20;1.00;;;;;;5222912;28;20033;-65
2023/07/13 08:23:10;;;;;;;0.88;0.70;;;25.20;99.90;;;;;;5189675;28;20039;-63
2023/07/13 08:25:50;;;;;;;0.40;0.40;;;25.20;99.90;;;;;;5224374;28;20025;-64
2023/07/13 08:28:22;;;;;;;0.70;0.60;;;25.70;99.90;;;;;;5174224;28;20344;-65
2023/07/13 08:30:56;;;;;;;0.60;0.60;;;26.20;99.90;;;;;;5202713;28;20245;-62
2023/07/13 08:33:29;;;;;;;0.70;0.70;;;26.00;1.00;;;;;;5191855;28;20041;-64
2023/07/13 08:36:05;;;;;;;0.50;0.50;;;25.90;1.00;;;;;;5188581;28;20035;-61
2023/07/13 08:38:36;;;;;;;0.50;0.40;;;26.00;1.00;;;;;;5223176;28;20274;-66
2023/07/13 08:41:19;;;;;;;0.75;0.50;;;25.80;1.00;;;;;;5199348;28;20219;-64
2023/07/13 08:44:01;;;;;;;0.60;0.60;;;25.60;1.00;;;;;;5203193;28;20229;-65
2023/07/13 08:46:37;;;;;;;0.50;0.50;;;25.60;1.00;;;;;;5182163;28;20325;-64
2023/07/13 08:49:17;;;;;;;0.80;0.80;;;25.80;1.00;;;;;;5203068;28;20031;-62
2023/07/13 08:52:00;;;;;;;0.60;0.60;;;25.90;1.00;;;;;;5201435;28;20037;-65
2023/07/13 08:54:47;;;;;;;1.33;0.87;;;26.00;1.00;;;;;;5186147;28;20036;-63
2023/07/13 08:57:30;;;;;;;1.48;1.02;;;26.00;1.00;;;;;;5218559;28;20029;-62
2023/07/13 09:00:01;;;;;;;0.50;0.50;;;26.10;1.00;;;;;;5223619;28;20033;-66
2023/07/13 09:02:39;;;;;;;0.60;0.60;;;26.40;1.00;;;;;;5218935;28;20269;-64
2023/07/13 09:05:16;;;;;;;0.80;0.80;;;26.50;1.00;;;;;;5204309;28;20032;-63
2023/07/13 09:08:19;;;;;;;2.80;0.90;;;26.70;1.00;;;;;;5202403;28;20632;-65
2023/07/13 09:11:08;;;;;;;0.80;0.80;;;26.70;1.00;;;;;;5201620;28;20100;-63
2023/07/13 09:13:48;;;;;;;0.85;0.68;;;26.70;99.90;;;;;;5168440;28;20324;-65
2023/07/13 09:16:24;;;;;;;0.77;0.70;;;26.70;99.90;;;;;;5165055;28;20048;-67
2023/07/13 09:19:04;;;;;;;0.90;0.90;;;26.70;99.90;;;;;;5185336;28;20021;-64
2023/07/13 09:21:44;;;;;;;1.13;1.02;;;26.80;99.90;;;;;;5202516;28;20041;-65
2023/07/13 09:24:38;;;;;;;1.70;1.10;;;26.90;99.90;;;;;;5184497;28;20041;-64
2023/07/13 09:27:22;;;;;;;1.15;0.95;;;26.60;99.90;;;;;;5209907;28;20033;-65
2023/07/13 09:30:26;;;;;;;1.17;1.07;;;26.00;99.90;;;;;;5220474;28;20470;-65
2023/07/13 09:32:59;;;;;;;1.52;1.13;;;25.70;99.90;;;;;;5188367;28;20277;-64
2023/07/13 09:35:33;;;;;;;1.75;1.63;;;25.70;99.90;;;;;;5183296;28;20025;-64
2023/07/13 09:38:19;;;;;;;1.33;1.23;;;25.80;99.90;;;;;;5183466;28;20055;-64
2023/07/13 09:41:03;;;;;;;2.65;1.52;;;25.80;99.90;;;;;;5185094;28;20035;-63
2023/07/13 09:43:36;;;;;;;1.55;1.45;;;25.60;99.90;;;;;;5168089;28;20029;-64
2023/07/13 09:46:23;;;;;;;1.80;1.20;;;25.60;99.90;;;;;;5156217;28;20063;-65
2023/07/13 09:48:58;;;;;;;1.98;1.38;;;25.70;99.90;;;;;;5201871;28;20025;-62
2023/07/13 09:51:29;;;;;;;2.20;1.25;;;26.00;99.90;;;;;;5167712;28;20073;-62
2023/07/13 09:54:02;;;;;;;1.58;1.30;;;26.50;99.90;;;;;;5184146;28;20037;-63
2023/07/13 09:56:33;;;;;;;1.23;1.13;;;26.80;39.20;;;;;;5172373;28;20041;-64
2023/07/13 09:59:23;;;;;;;1.42;1.25;;;27.30;99.70;;;;;;5203949;28;20037;-63
2023/07/13 10:01:55;;;;;;;2.42;1.55;;;27.70;1.00;;;;;;5186652;28;20350;-62
2023/07/13 10:04:35;;;;;;;2.25;1.50;;;28.00;1.00;;;;;;5204481;28;20283;-62
2023/07/13 10:07:15;;;;;;;1.70;1.58;;;28.20;99.90;;;;;;5222389;28;20031;-64
2023/07/13 10:09:47;;;;;;;1.90;1.55;;;28.50;99.90;;;;;;5187767;28;20039;-65
2023/07/13 10:12:23;;;;;;;1.50;1.40;;;28.50;99.90;;;;;;5203932;28;20039;-64
2023/07/13 10:14:59;;;;;;;2.28;1.35;;;28.40;99.90;;;;;;5188119;28;20039;-62
2023/07/13 10:17:33;;;;;;;3.72;1.35;;;28.10;99.90;;;;;;5220070;28;20205;-62
2023/07/13 10:20:12;;;;;;;1.70;1.50;;;28.20;99.90;;;;;;5204504;28;20031;-65
2023/07/13 10:23:04;;;;;;;2.35;1.25;;;27.80;99.90;;;;;;5225678;28;20036;-65
2023/07/13 10:25:43;;;;;;;1.45;1.20;;;27.70;99.90;;;;;;5229362;28;20024;-64
2023/07/13 10:28:27;;;;;;;2.25;1.90;;;28.10;99.90;;;;;;5178664;28;20329;-59
2023/07/13 10:31:04;;;;;;;2.42;1.60;;;28.40;99.90;;;;;;5207164;28;20340;-65
2023/07/13 10:33:36;;;;;;;2.92;1.55;;;29.10;99.90;;;;;;5229023;28;20025;-61
2023/07/13 10:36:18;;;;;;;2.50;1.38;;;29.20;99.90;;;;;;5228349;28;20262;-65
2023/07/13 10:38:55;;;;;;;1.30;1.20;;;29.00;99.90;;;;;;5195450;28;20036;-64
2023/07/13 10:41:35;;;;;;;2.03;1.45;;;29.00;99.90;;;;;;5211177;28;20033;-63
2023/07/13 10:44:21;;;;;;;1.63;1.40;;;28.00;99.90;;;;;;5229574;28;20091;-62
2023/07/13 10:46:56;;;;;;;1.63;1.52;;;27.80;99.90;;;;;;5213533;28;20302;-62
2023/07/13 10:49:35;;;;;;;2.10;1.40;;;27.50;99.90;;;;;;5210232;28;20032;-63
2023/07/13 10:52:26;;;;;;;2.03;1.20;;;27.40;99.90;;;;;;5210231;28;20359;-62
2023/07/13 10:55:00;;;;;;;1.83;1.48;;;27.30;97.20;;;;;;5226209;28;20042;-63
2023/07/13 10:57:41;;;;;;;1.83;1.53;;;26.80;99.90;;;;;;5193528;28;20254;-62
2023/07/13 11:00:18;;;;;;;1.60;1.25;;;27.00;99.90;;;;;;5190410;28;20070;-64
2023/07/13 11:03:00;;;;;;;2.17;1.98;;;27.20;99.90;;;;;;5197682;28;20246;-66
2023/07/13 11:05:34;;;;;;;2.10;1.50;;;27.30;99.90;;;;;;5190100;28;20047;-65
2023/07/13 11:08:30;;;;;;;1.52;1.35;;;27.20;66.60;;;;;;5211062;28;20074;-62
2023/07/13 11:11:22;;;;;;;1.83;1.50;;;27.00;68.20;;;;;;5215797;28;20364;-65
2023/07/13 11:13:57;;;;;;;1.75;1.20;;;27.40;31.60;;;;;;5211074;28;20245;-65
2023/07/13 11:16:59;;;;;;;1.40;1.20;;;27.90;99.90;;;;;;5207435;28;20037;-65
2023/07/13 11:19:41;;;;;;;1.75;1.50;;;27.80;99.90;;;;;;5204179;28;20306;-63
2023/07/13 11:22:21;;;;;;;2.60;1.30;;;28.20;44.30;;;;;;5208203;28;20250;-67
2023/07/13 11:24:59;;;;;;;1.30;1.20;;;29.10;81.80;;;;;;5208879;28;20329;-63
2023/07/13 11:27:42;;;;;;;1.50;1.20;;;30.00;1.00;;;;;;5226766;28;20318;-65
2023/07/13 11:30:24;;;;;;;1.42;1.30;;;30.00;1.00;;;;;;5205171;28;20242;-62
2023/07/13 11:33:23;;;;;;;1.38;1.27;;;29.70;1.00;;;;;;5224958;28;20047;-62
2023/07/13 11:36:02;;;;;;;1.10;1.00;;;29.90;1.00;;;;;;5218467;28;20050;-66
2023/07/13 11:38:36;;;;;;;1.50;1.17;;;29.80;1.00;;;;;;5169543;28;20348;-65
2023/07/13 11:41:26;;;;;;;1.35;1.08;;;29.50;1.00;;;;;;5204576;28;20213;-61
2023/07/13 11:44:20;;;;;;;1.77;1.40;;;29.90;1.00;;;;;;5203153;28;20029;-63
2023/07/13 11:47:00;;;;;;;1.20;1.10;;;31.10;1.00;;;;;;5214394;28;20056;-64
2023/07/13 11:49:46;;;;;;;1.45;1.35;;;32.60;1.00;;;;;;5205283;28;20025;-65
2023/07/13 11:52:23;;;;;;;1.38;1.27;;;32.50;1.00;;;;;;5186289;28;20238;-63
2023/07/13 11:55:00;;;;;;;1.17;1.08;;;32.20;1.00;;;;;;5202405;28;20104;-66
2023/07/13 11:57:41;;;;;;;1.73;1.40;;;31.90;99.90;;;;;;5213078;28;20265;-63
2023/07/13 12:00:26;;;;;;;1.35;1.23;;;31.40;1.00;;;;;;5201159;28;20028;-62
2023/07/13 12:03:02;;;;;;;1.40;1.10;;;31.10;1.00;;;;;;5210426;28;20048;-63
2023/07/13 12:05:53;;;;;;;1.20;1.10;;;31.50;99.90;;;;;;5205902;28;20221;-63
2023/07/13 12:08:24;;;;;;;1.13;1.02;;;31.50;99.90;;;;;;5224405;28;20043;-64
2023/07/13 12:11:14;;;;;;;1.70;1.42;;;30.10;22.20;;;;;;5172617;28;20049;-64
2023/07/13 12:13:47;;;;;;;1.52;1.20;;;30.40;1.00;;;;;;5205747;28;20025;-65
2023/07/13 12:16:34;;;;;;;1.58;1.13;;;31.80;1.00;;;;;;5217974;28;20252;-63
2023/07/13 12:19:20;;;;;;;1.02;1.00;;;32.60;1.00;;;;;;5198844;28;20056;-63
2023/07/13 12:21:55;;;;;;;1.83;1.23;;;32.80;99.90;;;;;;5205392;28;20021;-63
2023/07/13 12:24:31;;;;;;;1.42;1.27;;;33.00;99.90;;;;;;5223407;28;20458;-61
2023/07/13 12:27:05;;;;;;;1.70;1.25;;;32.00;99.90;;;;;;5206031;28;20025;-62
2023/07/13 12:29:56;;;;;;;2.28;1.30;;;32.40;99.90;;;;;;5204925;28;20047;-65
2023/07/13 12:32:30;;;;;;;1.33;1.13;;;32.40;99.90;;;;;;5224950;28;20043;-62
2023/07/13 12:35:15;;;;;;;;;;;32.00;99.90;;;;;;5224226;28;20052;-65
2023/07/13 12:37:50;;;;;;;1.55;1.25;;;31.20;99.90;;;;;;5205094;28;19909;-68
2023/07/13 12:40:28;;;;;;;1.88;1.20;;;30.00;1.00;;;;;;5201029;28;20036;-65
2023/07/13 12:43:00;;;;;;;1.38;1.27;;;29.30;99.90;;;;;;5200989;28;20396;-62
2023/07/13 12:45:32;;;;;;;2.30;1.40;;;29.40;99.90;;;;;;5201204;28;20033;-65
2023/07/13 12:48:15;;;;;;;6.63;1.90;;;29.10;1.00;;;;;;5204027;28;20056;-64
2023/07/13 12:50:49;;;;;;;1.20;1.10;;;29.20;35.50;;;;;;5222935;28;20045;-65
2023/07/13 12:53:32;;;;;;;1.33;1.20;;;29.40;1.00;;;;;;5222433;28;20087;-61
2023/07/13 12:56:04;;;;;;;1.67;1.40;;;29.80;99.90;;;;;;5187532;28;20324;-63
2023/07/13 12:58:43;;;;;;;3.45;1.20;;;29.20;1.00;;;;;;5188343;28;20237;-64
2023/07/13 13:01:14;;;;;;;2.85;1.20;;;29.30;1.00;;;;;;5199653;28;20025;-65
2023/07/13 13:03:53;;;;;;;1.23;1.10;;;29.40;1.00;;;;;;5187725;28;20040;-65
2023/07/13 13:06:27;;;;;;;1.45;1.23;;;29.30;99.90;;;;;;5203481;28;20035;-68
2023/07/13 13:09:03;;;;;;;1.50;1.33;;;29.40;99.90;;;;;;5221123;28;20357;-65
2023/07/13 13:11:34;;;;;;;1.30;1.08;;;29.80;1.00;;;;;;5204100;28;20063;-63
2023/07/13 13:14:09;;;;;;;2.08;1.25;;;29.60;1.00;;;;;;5187863;28;20041;-64
2023/07/13 13:16:54;;;;;;;2.50;1.23;;;29.80;99.90;;;;;;5201141;28;20207;-64
2023/07/13 13:19:30;;;;;;;2.47;1.52;;;30.40;1.00;;;;;;5204583;28;20040;-65
2023/07/13 13:22:02;;;;;;;2.28;1.88;;;29.70;1.00;;;;;;5188746;28;20032;-65
2023/07/13 13:24:35;;;;;;;0.90;0.90;;;29.20;99.90;;;;;;5221484;28;20049;-65
2023/07/13 13:27:18;;;;;;;1.38;1.27;;;29.80;99.90;;;;;;5188768;28;20037;-65
2023/07/13 13:29:53;;;;;;;;;;;29.70;99.90;;;;;;5223192;28;20167;-64
2023/07/13 13:32:24;;;;;;;2.28;1.05;;;30.30;1.00;;;;;;5219380;28;19916;-63
2023/07/13 13:34:55;;;;;;;1.30;1.20;;;30.60;1.00;;;;;;5222932;28;20306;-66
2023/07/13 13:37:32;;;;;;;2.83;1.10;;;31.00;1.00;;;;;;5205187;28;20276;-64
2023/07/13 13:40:16;;;;;;;1.98;1.30;;;31.50;1.00;;;;;;5194096;28;20059;-62
2023/07/13 13:42:47;;;;;;;1.30;1.00;;;31.30;1.00;;;;;;5186920;28;20041;-65
2023/07/13 13:45:25;;;;;;;1.20;1.10;;;30.40;1.00;;;;;;5201250;28;20032;-62
2023/07/13 13:47:56;;;;;;;1.63;1.30;;;29.70;1.00;;;;;;5190588;28;20613;-63
2023/07/13 13:50:28;;;;;;;1.00;1.00;;;29.40;99.90;;;;;;5221446;28;20464;-62
2023/07/13 13:53:02;;;;;;;1.70;1.30;;;29.40;1.00;;;;;;5205326;28;20047;-64
2023/07/13 13:55:33;;;;;;;;;;;29.10;1.00;;;;;;5184640;28;20346;-64
2023/07/13 13:58:10;;;;;;;1.40;1.30;;;29.00;1.00;;;;;;5117094;29;19910;-64
2023/07/13 14:00:45;;;;;;;1.55;1.10;;;29.30;1.00;;;;;;5167068;28;20039;-64
2023/07/13 14:03:24;;;;;;;1.42;1.27;;;30.00;1.00;;;;;;5119508;28;20035;-64
2023/07/13 14:05:57;;;;;;;1.20;1.10;;;29.90;1.00;;;;;;5167915;28;20114;-63
2023/07/13 14:08:28;;;;;;;1.25;1.02;;;29.20;1.00;;;;;;5184884;28;20034;-62